sensor_id;sensor_type;location;lat;lon;timestamp;pressure;altitude;pressure_sealevel;temperature;humidity
57000;BME280;42891;50.006;21.964;2022-10-19T00:02:51;99564.31;;;15.20;82.15
57000;BME280;42891;50.006;21.964;2022-10-19T00:06:51;99567.63;;;15.04;82.40
57000;BME280;42891;50.006;21.964;2022-10-19T00:10:52;99564.22;;;14.94;81.68
57000;BME280;42891;50.006;21.964;2022-10-19T00:14:52;99578.88;;;14.98;82.87
57000;BME280;42891;50.006;21.964;2022-10-19T00:18:55;99583.75;;;15.03;82.89
57000;BME280;42891;50.006;21.964;2022-10-19T00:22:56;99577.06;;;14.98;83.12
57000;BME280;42891;50.006;21.964;2022-10-19T00:26:56;99586.56;;;15.01;83.14
57000;BME280;42891;50.006;21.964;2022-10-19T00:31:04;99579.03;;;14.96;83.78
57000;BME280;42891;50.006;21.964;2022-10-19T00:35:05;99584.78;;;14.92;84.53
57000;BME280;42891;50.006;21.964;2022-10-19T00:39:11;99567.91;;;14.83;85.17
57000;BME280;42891;50.006;21.964;2022-10-19T00:43:20;99556.63;;;14.71;85.39
57000;BME280;42891;50.006;21.964;2022-10-19T00:47:22;99577.78;;;14.91;84.98
57000;BME280;42891;50.006;21.964;2022-10-19T00:51:24;99578.59;;;15.01;85.06
57000;BME280;42891;50.006;21.964;2022-10-19T00:55:26;99555.44;;;14.83;84.03
57000;BME280;42891;50.006;21.964;2022-10-19T00:59:27;99579.88;;;14.97;84.22
57000;BME280;42891;50.006;21.964;2022-10-19T01:03:32;99571.28;;;15.03;83.87
57000;BME280;42891;50.006;21.964;2022-10-19T01:07:32;99555.38;;;14.93;83.77
57000;BME280;42891;50.006;21.964;2022-10-19T01:16:17;99569.75;;;14.82;85.22
57000;BME280;42891;50.006;21.964;2022-10-19T01:37:16;99544.03;;;14.18;89.37
57000;BME280;42891;50.006;21.964;2022-10-19T01:46:18;99538.84;;;13.78;90.89
57000;BME280;42891;50.006;21.964;2022-10-19T01:50:43;99540.13;;;14.12;89.52
57000;BME280;42891;50.006;21.964;2022-10-19T01:54:49;99531.75;;;14.07;89.71
57000;BME280;42891;50.006;21.964;2022-10-19T01:58:54;99533.97;;;14.11;89.59
57000;BME280;42891;50.006;21.964;2022-10-19T02:02:57;99531.31;;;14.11;88.80
57000;BME280;42891;50.006;21.964;2022-10-19T02:07:00;99533.97;;;13.64;90.62
57000;BME280;42891;50.006;21.964;2022-10-19T02:11:02;99542.94;;;14.10;88.81
57000;BME280;42891;50.006;21.964;2022-10-19T02:15:09;99539.13;;;14.13;88.18
57000;BME280;42891;50.006;21.964;2022-10-19T02:19:13;99537.94;;;13.88;88.16
57000;BME280;42891;50.006;21.964;2022-10-19T02:23:16;99528.25;;;14.16;87.34
57000;BME280;42891;50.006;21.964;2022-10-19T02:27:18;99527.16;;;13.99;88.49
57000;BME280;42891;50.006;21.964;2022-10-19T02:31:18;99534.66;;;13.76;89.79
57000;BME280;42891;50.006;21.964;2022-10-19T02:35:18;99531.09;;;13.95;89.07
57000;BME280;42891;50.006;21.964;2022-10-19T02:39:19;99523.53;;;14.00;88.20
57000;BME280;42891;50.006;21.964;2022-10-19T02:43:21;99492.38;;;14.02;87.89
57000;BME280;42891;50.006;21.964;2022-10-19T02:47:26;99506.09;;;13.88;88.54
57000;BME280;42891;50.006;21.964;2022-10-19T02:55:51;99511.56;;;13.86;88.41
57000;BME280;42891;50.006;21.964;2022-10-19T02:59:51;99517.13;;;13.93;88.47
57000;BME280;42891;50.006;21.964;2022-10-19T03:03:52;99511.13;;;14.01;88.10
57000;BME280;42891;50.006;21.964;2022-10-19T03:07:52;99527.28;;;14.07;87.91
57000;BME280;42891;50.006;21.964;2022-10-19T03:11:54;99530.19;;;14.14;87.87
57000;BME280;42891;50.006;21.964;2022-10-19T03:15:55;99502.09;;;14.11;87.47
57000;BME280;42891;50.006;21.964;2022-10-19T03:19:55;99538.66;;;14.27;87.39
57000;BME280;42891;50.006;21.964;2022-10-19T03:23:55;99521.03;;;13.98;88.47
57000;BME280;42891;50.006;21.964;2022-10-19T03:27:55;99527.09;;;14.19;88.02
57000;BME280;42891;50.006;21.964;2022-10-19T03:31:56;99526.44;;;14.07;88.37
57000;BME280;42891;50.006;21.964;2022-10-19T03:36:16;99519.25;;;14.17;87.83
57000;BME280;42891;50.006;21.964;2022-10-19T03:40:18;99527.81;;;14.11;88.06
57000;BME280;42891;50.006;21.964;2022-10-19T03:44:18;99510.72;;;13.86;88.63
57000;BME280;42891;50.006;21.964;2022-10-19T03:48:19;99490.31;;;13.86;89.03
57000;BME280;42891;50.006;21.964;2022-10-19T03:52:19;99494.44;;;13.61;89.56
57000;BME280;42891;50.006;21.964;2022-10-19T03:56:22;99484.41;;;13.64;89.70
57000;BME280;42891;50.006;21.964;2022-10-19T04:00:23;99484.19;;;13.86;88.76
57000;BME280;42891;50.006;21.964;2022-10-19T04:04:23;99500.31;;;13.64;89.48
57000;BME280;42891;50.006;21.964;2022-10-19T04:08:23;99499.47;;;13.64;90.26
57000;BME280;42891;50.006;21.964;2022-10-19T04:12:23;99492.44;;;13.83;89.04
57000;BME280;42891;50.006;21.964;2022-10-19T04:16:25;99486.75;;;13.68;89.28
57000;BME280;42891;50.006;21.964;2022-10-19T04:20:26;99488.50;;;13.87;88.76
57000;BME280;42891;50.006;21.964;2022-10-19T04:24:27;99493.50;;;14.00;88.17
57000;BME280;42891;50.006;21.964;2022-10-19T04:28:28;99486.91;;;14.04;88.11
57000;BME280;42891;50.006;21.964;2022-10-19T04:32:28;99491.09;;;14.06;88.15
57000;BME280;42891;50.006;21.964;2022-10-19T04:36:28;99461.56;;;13.81;89.10
57000;BME280;42891;50.006;21.964;2022-10-19T04:40:29;99484.72;;;13.89;88.92
57000;BME280;42891;50.006;21.964;2022-10-19T04:44:29;99483.09;;;13.78;89.41
57000;BME280;42891;50.006;21.964;2022-10-19T04:48:29;99477.91;;;13.77;88.69
57000;BME280;42891;50.006;21.964;2022-10-19T04:52:30;99475.25;;;13.77;87.64
57000;BME280;42891;50.006;21.964;2022-10-19T04:56:30;99488.69;;;13.75;87.91
57000;BME280;42891;50.006;21.964;2022-10-19T05:00:31;99479.78;;;13.67;87.30
57000;BME280;42891;50.006;21.964;2022-10-19T05:04:31;99471.44;;;13.42;87.06
57000;BME280;42891;50.006;21.964;2022-10-19T05:08:32;99472.16;;;13.44;86.77
57000;BME280;42891;50.006;21.964;2022-10-19T05:12:36;99472.66;;;13.57;86.75
57000;BME280;42891;50.006;21.964;2022-10-19T05:16:36;99475.19;;;13.49;86.75
57000;BME280;42891;50.006;21.964;2022-10-19T05:20:36;99472.53;;;13.59;86.25
57000;BME280;42891;50.006;21.964;2022-10-19T05:24:36;99479.50;;;13.60;85.42
57000;BME280;42891;50.006;21.964;2022-10-19T05:28:37;99487.50;;;13.50;84.70
57000;BME280;42891;50.006;21.964;2022-10-19T05:32:37;99485.78;;;13.59;84.97
57000;BME280;42891;50.006;21.964;2022-10-19T05:36:39;99489.47;;;13.48;85.28
57000;BME280;42891;50.006;21.964;2022-10-19T05:40:44;99472.53;;;13.29;85.04
57000;BME280;42891;50.006;21.964;2022-10-19T05:44:44;99481.50;;;12.99;86.47
57000;BME280;42891;50.006;21.964;2022-10-19T05:48:46;99464.06;;;13.06;85.32
57000;BME280;42891;50.006;21.964;2022-10-19T05:52:46;99479.25;;;12.75;86.79
57000;BME280;42891;50.006;21.964;2022-10-19T05:56:46;99481.78;;;12.86;86.09
57000;BME280;42891;50.006;21.964;2022-10-19T06:00:55;99481.50;;;12.89;86.15
57000;BME280;42891;50.006;21.964;2022-10-19T06:04:55;99491.56;;;12.95;85.29
57000;BME280;42891;50.006;21.964;2022-10-19T06:08:56;99470.91;;;12.99;84.57
57000;BME280;42891;50.006;21.964;2022-10-19T06:12:58;99482.63;;;13.16;84.29
57000;BME280;42891;50.006;21.964;2022-10-19T06:16:58;99477.47;;;13.15;84.37
57000;BME280;42891;50.006;21.964;2022-10-19T06:21:03;99506.22;;;13.19;85.20
57000;BME280;42891;50.006;21.964;2022-10-19T06:25:05;99481.91;;;13.24;83.77
57000;BME280;42891;50.006;21.964;2022-10-19T06:29:05;99499.34;;;13.26;82.51
57000;BME280;42891;50.006;21.964;2022-10-19T06:33:06;99480.66;;;13.18;82.73
57000;BME280;42891;50.006;21.964;2022-10-19T06:37:06;99500.91;;;13.39;82.02
57000;BME280;42891;50.006;21.964;2022-10-19T06:41:07;99513.47;;;13.46;82.02
57000;BME280;42891;50.006;21.964;2022-10-19T06:45:08;99515.69;;;13.51;82.21
57000;BME280;42891;50.006;21.964;2022-10-19T06:49:11;99487.63;;;13.29;81.49
57000;BME280;42891;50.006;21.964;2022-10-19T06:53:12;99505.63;;;12.86;81.81
57000;BME280;42891;50.006;21.964;2022-10-19T06:57:12;99500.63;;;13.22;81.33
57000;BME280;42891;50.006;21.964;2022-10-19T07:01:12;99507.88;;;13.20;81.56
57000;BME280;42891;50.006;21.964;2022-10-19T07:05:13;99505.34;;;12.79;81.16
57000;BME280;42891;50.006;21.964;2022-10-19T07:09:13;99520.44;;;13.18;80.47
57000;BME280;42891;50.006;21.964;2022-10-19T07:13:13;99504.38;;;13.20;79.46
57000;BME280;42891;50.006;21.964;2022-10-19T07:17:14;99506.75;;;13.03;79.12
57000;BME280;42891;50.006;21.964;2022-10-19T07:21:15;99510.41;;;13.22;76.50
57000;BME280;42891;50.006;21.964;2022-10-19T07:25:15;99506.50;;;13.26;76.06
57000;BME280;42891;50.006;21.964;2022-10-19T07:29:16;99506.63;;;13.15;74.84
57000;BME280;42891;50.006;21.964;2022-10-19T07:33:16;99523.94;;;13.28;74.56
57000;BME280;42891;50.006;21.964;2022-10-19T07:37:16;99525.75;;;13.08;74.78
57000;BME280;42891;50.006;21.964;2022-10-19T07:41:19;99522.25;;;13.27;73.86
57000;BME280;42891;50.006;21.964;2022-10-19T07:45:20;99514.97;;;13.29;73.87
57000;BME280;42891;50.006;21.964;2022-10-19T07:49:20;99511.06;;;13.34;73.74
57000;BME280;42891;50.006;21.964;2022-10-19T07:53:21;99509.16;;;13.36;74.04
57000;BME280;42891;50.006;21.964;2022-10-19T07:57:22;99524.47;;;13.52;73.15
57000;BME280;42891;50.006;21.964;2022-10-19T08:01:33;99512.19;;;13.41;72.73
57000;BME280;42891;50.006;21.964;2022-10-19T08:05:34;99520.44;;;13.47;72.11
57000;BME280;42891;50.006;21.964;2022-10-19T08:09:35;99506.34;;;13.57;71.22
57000;BME280;42891;50.006;21.964;2022-10-19T08:13:36;99501.88;;;13.47;70.90
57000;BME280;42891;50.006;21.964;2022-10-19T08:17:37;99502.56;;;13.59;70.06
57000;BME280;42891;50.006;21.964;2022-10-19T08:21:41;99503.72;;;13.37;70.28
57000;BME280;42891;50.006;21.964;2022-10-19T08:25:41;99490.44;;;13.18;69.20
57000;BME280;42891;50.006;21.964;2022-10-19T08:29:42;99482.75;;;13.24;69.08
57000;BME280;42891;50.006;21.964;2022-10-19T08:33:43;99494.34;;;13.43;67.50
57000;BME280;42891;50.006;21.964;2022-10-19T08:37:43;99475.91;;;13.32;68.00
57000;BME280;42891;50.006;21.964;2022-10-19T08:42:02;99491.84;;;13.41;66.91
57000;BME280;42891;50.006;21.964;2022-10-19T08:50:19;99504.25;;;13.41;66.70
57000;BME280;42891;50.006;21.964;2022-10-19T08:54:21;99504.94;;;13.33;65.73
57000;BME280;42891;50.006;21.964;2022-10-19T08:58:31;99500.34;;;13.35;66.50
57000;BME280;42891;50.006;21.964;2022-10-19T09:02:56;99502.97;;;13.45;67.22
57000;BME280;42891;50.006;21.964;2022-10-19T09:07:22;99501.56;;;13.31;65.88
57000;BME280;42891;50.006;21.964;2022-10-19T09:11:27;99491.66;;;13.62;67.20
57000;BME280;42891;50.006;21.964;2022-10-19T09:15:43;99476.06;;;13.50;65.71
57000;BME280;42891;50.006;21.964;2022-10-19T09:19:44;99491.50;;;13.64;65.41
57000;BME280;42891;50.006;21.964;2022-10-19T09:24:05;99508.28;;;13.55;63.71
57000;BME280;42891;50.006;21.964;2022-10-19T09:28:16;99496.19;;;13.42;63.51
57000;BME280;42891;50.006;21.964;2022-10-19T09:32:37;99492.53;;;13.43;63.81
57000;BME280;42891;50.006;21.964;2022-10-19T09:36:45;99510.00;;;13.36;63.97
57000;BME280;42891;50.006;21.964;2022-10-19T09:40:46;99506.91;;;13.51;64.08
57000;BME280;42891;50.006;21.964;2022-10-19T09:44:47;99504.78;;;13.54;64.19
57000;BME280;42891;50.006;21.964;2022-10-19T09:48:50;99513.69;;;13.63;64.32
57000;BME280;42891;50.006;21.964;2022-10-19T09:52:56;99503.00;;;13.35;65.16
57000;BME280;42891;50.006;21.964;2022-10-19T09:56:57;99508.56;;;12.93;65.61
57000;BME280;42891;50.006;21.964;2022-10-19T10:00:57;99514.59;;;13.24;65.12
57000;BME280;42891;50.006;21.964;2022-10-19T10:05:09;99514.16;;;13.19;65.86
57000;BME280;42891;50.006;21.964;2022-10-19T10:09:17;99501.19;;;12.96;67.32
57000;BME280;42891;50.006;21.964;2022-10-19T10:13:20;99498.13;;;13.01;67.63
57000;BME280;42891;50.006;21.964;2022-10-19T10:17:27;99505.78;;;13.24;68.23
57000;BME280;42891;50.006;21.964;2022-10-19T10:21:44;99500.91;;;13.29;67.52
57000;BME280;42891;50.006;21.964;2022-10-19T10:25:47;99490.72;;;13.34;68.08
57000;BME280;42891;50.006;21.964;2022-10-19T10:29:54;99492.50;;;13.24;68.67
57000;BME280;42891;50.006;21.964;2022-10-19T10:33:59;99489.19;;;13.22;69.26
57000;BME280;42891;50.006;21.964;2022-10-19T10:38:22;99493.66;;;13.51;68.48
57000;BME280;42891;50.006;21.964;2022-10-19T10:42:39;99505.63;;;13.16;69.02
57000;BME280;42891;50.006;21.964;2022-10-19T10:47:01;99478.28;;;13.35;66.53
57000;BME280;42891;50.006;21.964;2022-10-19T10:51:07;99481.22;;;13.22;65.04
57000;BME280;42891;50.006;21.964;2022-10-19T10:59:24;99475.19;;;13.49;63.37
57000;BME280;42891;50.006;21.964;2022-10-19T11:03:27;99472.31;;;13.42;63.17
57000;BME280;42891;50.006;21.964;2022-10-19T11:07:29;99472.97;;;13.44;63.22
57000;BME280;42891;50.006;21.964;2022-10-19T11:11:41;99477.16;;;13.27;63.01
57000;BME280;42891;50.006;21.964;2022-10-19T11:19:59;99480.38;;;13.41;63.31
57000;BME280;42891;50.006;21.964;2022-10-19T11:24:17;99477.56;;;13.23;61.78
57000;BME280;42891;50.006;21.964;2022-10-19T11:32:34;99462.78;;;13.30;61.56
57000;BME280;42891;50.006;21.964;2022-10-19T11:36:58;99473.13;;;13.23;62.38
57000;BME280;42891;50.006;21.964;2022-10-19T11:45:49;99442.00;;;13.25;62.19
57000;BME280;42891;50.006;21.964;2022-10-19T11:54:48;99437.81;;;13.33;60.55
57000;BME280;42891;50.006;21.964;2022-10-19T12:11:58;99438.53;;;13.15;59.94
57000;BME280;42891;50.006;21.964;2022-10-19T12:16:02;99440.03;;;13.27;60.19
57000;BME280;42891;50.006;21.964;2022-10-19T12:24:41;99429.59;;;13.36;60.67
57000;BME280;42891;50.006;21.964;2022-10-19T12:28:47;99415.50;;;13.06;60.69
57000;BME280;42891;50.006;21.964;2022-10-19T12:37:40;99437.94;;;13.31;60.52
57000;BME280;42891;50.006;21.964;2022-10-19T12:42:08;99417.16;;;13.17;60.32
57000;BME280;42891;50.006;21.964;2022-10-19T12:54:48;99416.34;;;13.16;58.75
57000;BME280;42891;50.006;21.964;2022-10-19T12:58:58;99428.34;;;12.91;58.54
57000;BME280;42891;50.006;21.964;2022-10-19T13:03:04;99423.63;;;12.85;59.14
57000;BME280;42891;50.006;21.964;2022-10-19T13:07:06;99404.63;;;12.89;58.58
57000;BME280;42891;50.006;21.964;2022-10-19T13:11:10;99424.16;;;12.59;59.38
57000;BME280;42891;50.006;21.964;2022-10-19T13:19:37;99402.41;;;12.26;60.25
57000;BME280;42891;50.006;21.964;2022-10-19T13:23:39;99413.16;;;12.54;61.21
57000;BME280;42891;50.006;21.964;2022-10-19T13:27:39;99419.72;;;12.50;61.69
57000;BME280;42891;50.006;21.964;2022-10-19T13:31:39;99414.97;;;12.53;61.75
57000;BME280;42891;50.006;21.964;2022-10-19T13:35:40;99420.00;;;12.66;62.19
57000;BME280;42891;50.006;21.964;2022-10-19T13:39:40;99428.94;;;12.75;62.42
57000;BME280;42891;50.006;21.964;2022-10-19T13:44:02;99424.72;;;12.62;62.67
57000;BME280;42891;50.006;21.964;2022-10-19T13:48:18;99419.88;;;12.77;62.75
57000;BME280;42891;50.006;21.964;2022-10-19T14:01:25;99401.56;;;12.55;64.35
57000;BME280;42891;50.006;21.964;2022-10-19T14:05:44;99420.00;;;12.47;65.09
57000;BME280;42891;50.006;21.964;2022-10-19T14:14:13;99417.22;;;12.58;66.23
57000;BME280;42891;50.006;21.964;2022-10-19T14:18:23;99413.97;;;12.44;66.54
57000;BME280;42891;50.006;21.964;2022-10-19T14:22:32;99410.66;;;12.42;66.39
57000;BME280;42891;50.006;21.964;2022-10-19T14:26:33;99419.53;;;12.32;67.12
57000;BME280;42891;50.006;21.964;2022-10-19T14:30:34;99418.16;;;12.47;66.49
57000;BME280;42891;50.006;21.964;2022-10-19T14:34:40;99416.75;;;12.23;67.44
57000;BME280;42891;50.006;21.964;2022-10-19T14:38:41;99410.78;;;12.51;67.25
57000;BME280;42891;50.006;21.964;2022-10-19T14:42:44;99408.25;;;12.49;67.67
57000;BME280;42891;50.006;21.964;2022-10-19T14:46:47;99393.06;;;12.32;69.03
57000;BME280;42891;50.006;21.964;2022-10-19T14:50:50;99428.19;;;12.53;69.09
57000;BME280;42891;50.006;21.964;2022-10-19T14:54:53;99432.22;;;12.28;70.33
57000;BME280;42891;50.006;21.964;2022-10-19T15:03:20;99440.00;;;12.30;71.67
57000;BME280;42891;50.006;21.964;2022-10-19T15:07:24;99449.09;;;12.37;71.49
57000;BME280;42891;50.006;21.964;2022-10-19T15:11:30;99437.00;;;12.44;71.69
57000;BME280;42891;50.006;21.964;2022-10-19T15:15:33;99449.19;;;12.16;72.90
57000;BME280;42891;50.006;21.964;2022-10-19T15:23:48;99436.22;;;12.13;73.55
57000;BME280;42891;50.006;21.964;2022-10-19T15:27:49;99453.22;;;12.20;73.42
57000;BME280;42891;50.006;21.964;2022-10-19T15:31:50;99454.09;;;12.30;73.30
57000;BME280;42891;50.006;21.964;2022-10-19T15:36:09;99447.25;;;12.18;73.62
57000;BME280;42891;50.006;21.964;2022-10-19T15:40:24;99459.25;;;12.32;73.39
57000;BME280;42891;50.006;21.964;2022-10-19T15:44:51;99462.88;;;12.31;73.44
57000;BME280;42891;50.006;21.964;2022-10-19T15:48:53;99456.00;;;12.08;73.96
57000;BME280;42891;50.006;21.964;2022-10-19T15:52:53;99467.38;;;11.99;74.85
57000;BME280;42891;50.006;21.964;2022-10-19T15:56:54;99461.41;;;12.07;74.78
57000;BME280;42891;50.006;21.964;2022-10-19T16:00:55;99468.44;;;12.27;74.83
57000;BME280;42891;50.006;21.964;2022-10-19T16:04:55;99472.84;;;12.07;76.96
57000;BME280;42891;50.006;21.964;2022-10-19T16:08:56;99518.78;;;11.97;79.05
57000;BME280;42891;50.006;21.964;2022-10-19T16:12:57;99511.88;;;11.42;78.38
57000;BME280;42891;50.006;21.964;2022-10-19T16:16:57;99510.84;;;11.54;79.54
57000;BME280;42891;50.006;21.964;2022-10-19T16:20:58;99525.81;;;11.44;80.46
57000;BME280;42891;50.006;21.964;2022-10-19T16:24:58;99506.06;;;11.27;80.51
57000;BME280;42891;50.006;21.964;2022-10-19T16:28:59;99523.59;;;11.28;81.16
57000;BME280;42891;50.006;21.964;2022-10-19T16:33:00;99516.13;;;11.33;82.21
57000;BME280;42891;50.006;21.964;2022-10-19T16:37:00;99532.25;;;11.30;81.33
57000;BME280;42891;50.006;21.964;2022-10-19T16:41:06;99526.38;;;11.48;81.85
57000;BME280;42891;50.006;21.964;2022-10-19T16:45:08;99525.88;;;11.33;81.79
57000;BME280;42891;50.006;21.964;2022-10-19T16:49:08;99532.13;;;11.32;81.17
57000;BME280;42891;50.006;21.964;2022-10-19T16:53:09;99525.63;;;11.36;81.66
57000;BME280;42891;50.006;21.964;2022-10-19T16:57:09;99535.84;;;11.29;81.35
57000;BME280;42891;50.006;21.964;2022-10-19T17:01:13;99548.56;;;11.35;80.56
57000;BME280;42891;50.006;21.964;2022-10-19T17:05:15;99556.06;;;11.30;81.32
57000;BME280;42891;50.006;21.964;2022-10-19T17:09:15;99565.41;;;11.34;81.20
57000;BME280;42891;50.006;21.964;2022-10-19T17:13:15;99565.78;;;11.30;81.79
57000;BME280;42891;50.006;21.964;2022-10-19T17:17:15;99562.28;;;11.29;80.70
57000;BME280;42891;50.006;21.964;2022-10-19T17:21:18;99542.03;;;11.18;80.17
57000;BME280;42891;50.006;21.964;2022-10-19T17:25:19;99578.84;;;11.31;80.37
57000;BME280;42891;50.006;21.964;2022-10-19T17:29:20;99584.28;;;11.30;80.10
57000;BME280;42891;50.006;21.964;2022-10-19T17:33:20;99604.59;;;11.29;79.92
57000;BME280;42891;50.006;21.964;2022-10-19T17:37:21;99584.44;;;11.17;79.92
57000;BME280;42891;50.006;21.964;2022-10-19T17:41:21;99610.34;;;11.34;79.63
57000;BME280;42891;50.006;21.964;2022-10-19T17:45:22;99613.88;;;11.23;80.09
57000;BME280;42891;50.006;21.964;2022-10-19T17:49:22;99601.59;;;11.22;80.82
57000;BME280;42891;50.006;21.964;2022-10-19T17:53:23;99619.28;;;11.22;80.43
57000;BME280;42891;50.006;21.964;2022-10-19T17:57:23;99628.03;;;11.22;80.51
57000;BME280;42891;50.006;21.964;2022-10-19T18:01:24;99637.06;;;11.20;80.96
57000;BME280;42891;50.006;21.964;2022-10-19T18:05:24;99636.38;;;11.06;81.12
57000;BME280;42891;50.006;21.964;2022-10-19T18:09:25;99642.84;;;11.14;81.51
57000;BME280;42891;50.006;21.964;2022-10-19T18:13:25;99647.69;;;10.97;81.47
57000;BME280;42891;50.006;21.964;2022-10-19T18:17:26;99636.06;;;10.88;81.36
57000;BME280;42891;50.006;21.964;2022-10-19T18:21:29;99633.53;;;10.98;81.17
57000;BME280;42891;50.006;21.964;2022-10-19T18:25:30;99638.94;;;10.97;80.68
57000;BME280;42891;50.006;21.964;2022-10-19T18:29:30;99658.59;;;11.04;80.48
57000;BME280;42891;50.006;21.964;2022-10-19T18:33:31;99657.75;;;11.15;79.98
57000;BME280;42891;50.006;21.964;2022-10-19T18:37:31;99658.47;;;11.05;79.94
57000;BME280;42891;50.006;21.964;2022-10-19T18:41:32;99667.97;;;11.08;79.88
57000;BME280;42891;50.006;21.964;2022-10-19T18:45:32;99675.16;;;11.06;80.14
57000;BME280;42891;50.006;21.964;2022-10-19T18:49:33;99673.72;;;11.02;80.12
57000;BME280;42891;50.006;21.964;2022-10-19T18:53:33;99685.28;;;11.01;80.12
57000;BME280;42891;50.006;21.964;2022-10-19T18:57:34;99637.50;;;10.58;80.11
57000;BME280;42891;50.006;21.964;2022-10-19T19:01:34;99698.25;;;10.93;79.66
57000;BME280;42891;50.006;21.964;2022-10-19T19:05:35;99701.72;;;10.93;79.64
57000;BME280;42891;50.006;21.964;2022-10-19T19:09:35;99709.66;;;10.82;79.82
57000;BME280;42891;50.006;21.964;2022-10-19T19:13:37;99718.16;;;10.85;79.94
57000;BME280;42891;50.006;21.964;2022-10-19T19:17:38;99709.78;;;10.91;79.42
57000;BME280;42891;50.006;21.964;2022-10-19T19:21:39;99724.69;;;10.93;79.30
57000;BME280;42891;50.006;21.964;2022-10-19T19:25:42;99726.84;;;10.87;78.96
57000;BME280;42891;50.006;21.964;2022-10-19T19:29:42;99729.81;;;10.60;79.05
57000;BME280;42891;50.006;21.964;2022-10-19T19:33:43;99744.13;;;10.69;79.44
57000;BME280;42891;50.006;21.964;2022-10-19T19:37:44;99744.13;;;10.69;78.69
57000;BME280;42891;50.006;21.964;2022-10-19T19:41:45;99748.06;;;10.63;78.31
57000;BME280;42891;50.006;21.964;2022-10-19T19:45:55;99757.91;;;10.61;77.81
57000;BME280;42891;50.006;21.964;2022-10-19T19:49:55;99763.06;;;10.63;77.39
57000;BME280;42891;50.006;21.964;2022-10-19T19:53:56;99748.38;;;10.36;77.05
57000;BME280;42891;50.006;21.964;2022-10-19T19:57:56;99755.59;;;10.45;77.06
57000;BME280;42891;50.006;21.964;2022-10-19T20:01:57;99756.69;;;10.43;77.05
57000;BME280;42891;50.006;21.964;2022-10-19T20:06:00;99771.81;;;10.52;76.72
57000;BME280;42891;50.006;21.964;2022-10-19T20:10:02;99751.84;;;10.36;76.98
57000;BME280;42891;50.006;21.964;2022-10-19T20:14:02;99777.06;;;10.40;77.18
57000;BME280;42891;50.006;21.964;2022-10-19T20:18:02;99784.53;;;10.47;77.54
57000;BME280;42891;50.006;21.964;2022-10-19T20:22:02;99790.13;;;10.42;77.45
57000;BME280;42891;50.006;21.964;2022-10-19T20:26:05;99792.78;;;10.42;77.84
57000;BME280;42891;50.006;21.964;2022-10-19T20:30:08;99782.56;;;10.37;78.06
57000;BME280;42891;50.006;21.964;2022-10-19T20:34:09;99800.81;;;10.40;78.42
57000;BME280;42891;50.006;21.964;2022-10-19T20:38:10;99798.41;;;10.37;78.61
57000;BME280;42891;50.006;21.964;2022-10-19T20:42:12;99798.53;;;10.36;78.47
57000;BME280;42891;50.006;21.964;2022-10-19T20:46:17;99791.78;;;10.32;78.14
57000;BME280;42891;50.006;21.964;2022-10-19T20:50:18;99786.28;;;10.35;77.38
57000;BME280;42891;50.006;21.964;2022-10-19T20:54:18;99785.75;;;10.30;77.27
57000;BME280;42891;50.006;21.964;2022-10-19T20:58:19;99794.28;;;10.33;76.33
57000;BME280;42891;50.006;21.964;2022-10-19T21:02:19;99805.53;;;10.24;76.49
57000;BME280;42891;50.006;21.964;2022-10-19T21:06:21;99814.75;;;10.18;76.38
57000;BME280;42891;50.006;21.964;2022-10-19T21:10:22;99808.88;;;10.15;76.23
57000;BME280;42891;50.006;21.964;2022-10-19T21:14:24;99797.41;;;10.03;76.50
57000;BME280;42891;50.006;21.964;2022-10-19T21:18:25;99812.31;;;9.91;75.67
57000;BME280;42891;50.006;21.964;2022-10-19T21:22:25;99811.53;;;10.02;75.54
57000;BME280;42891;50.006;21.964;2022-10-19T21:26:27;99830.00;;;10.02;75.53
57000;BME280;42891;50.006;21.964;2022-10-19T21:30:27;99824.56;;;9.92;75.60
57000;BME280;42891;50.006;21.964;2022-10-19T21:34:29;99827.59;;;9.75;75.23
57000;BME280;42891;50.006;21.964;2022-10-19T21:38:30;99829.44;;;9.85;74.83
57000;BME280;42891;50.006;21.964;2022-10-19T21:42:30;99811.25;;;9.69;74.18
57000;BME280;42891;50.006;21.964;2022-10-19T21:46:30;99835.50;;;9.75;73.68
57000;BME280;42891;50.006;21.964;2022-10-19T21:50:31;99829.25;;;9.76;73.49
57000;BME280;42891;50.006;21.964;2022-10-19T21:54:31;99835.53;;;9.62;73.15
57000;BME280;42891;50.006;21.964;2022-10-19T21:58:31;99837.75;;;9.68;73.05
57000;BME280;42891;50.006;21.964;2022-10-19T22:02:31;99824.28;;;9.47;73.40
57000;BME280;42891;50.006;21.964;2022-10-19T22:06:34;99843.50;;;9.36;73.13
57000;BME280;42891;50.006;21.964;2022-10-19T22:10:36;99823.47;;;9.33;73.75
57000;BME280;42891;50.006;21.964;2022-10-19T22:14:36;99839.91;;;9.37;73.05
57000;BME280;42891;50.006;21.964;2022-10-19T22:18:37;99840.75;;;9.37;73.10
57000;BME280;42891;50.006;21.964;2022-10-19T22:22:37;99826.00;;;9.22;73.26
57000;BME280;42891;50.006;21.964;2022-10-19T22:26:40;99848.47;;;9.28;72.86
57000;BME280;42891;50.006;21.964;2022-10-19T22:30:41;99845.63;;;9.18;73.02
57000;BME280;42891;50.006;21.964;2022-10-19T22:34:44;99848.34;;;9.16;72.90
57000;BME280;42891;50.006;21.964;2022-10-19T22:38:44;99855.28;;;9.17;73.45
57000;BME280;42891;50.006;21.964;2022-10-19T22:42:45;99853.75;;;9.15;73.50
57000;BME280;42891;50.006;21.964;2022-10-19T22:46:45;99857.41;;;8.99;73.74
57000;BME280;42891;50.006;21.964;2022-10-19T22:50:46;99853.00;;;8.87;74.09
57000;BME280;42891;50.006;21.964;2022-10-19T22:54:46;99841.38;;;8.77;74.00
57000;BME280;42891;50.006;21.964;2022-10-19T22:58:46;99856.66;;;8.84;73.49
57000;BME280;42891;50.006;21.964;2022-10-19T23:02:47;99851.59;;;8.81;74.08
57000;BME280;42891;50.006;21.964;2022-10-19T23:06:47;99851.19;;;8.75;74.09